To NAV CANADA Home Page Login to a new session Search on AWWS site Feedback and Comments Disclaimer Vers la page française équivalente Tips FAQ What's new on the site To the Forecasts and Observations / NOTAM section To "File a Flight Plan" website Publications and other links Update of the User's profile FIC Telephone Numbers My Weather Data Folder Route Weather Data Regional Weather Data Local Weather Data To the Forecasts and Observations / NOTAM section
Request Generated 03/23/2017 at 00:11:13 UTC . Weather information available at that time is displayed.

METAR/TAF

HAMILTON/ON    

METAR CYHM 230000Z 31005KT 15SM FEW080 FEW250 M04/M12 A3050 RMK
AC1CI1 AC TR CI TR SLP343=
METAR CYHM 222300Z 32009KT 15SM FEW250 M03/M14 A3049 RMK CI1 CI TR
SLP342=
METAR CYHM 222200Z 30010G16KT 12SM FEW045 FEW250 M02/M13 A3049 RMK
CU1CI1 CU TR CI TR SLP342=

TAF CYHM 222338Z 2300/2324 31008KT P6SM FEW250
BECMG 2307/2309 24005KT
FM231700 19008KT P6SM SCT160
FM232200 07007KT P6SM OVC100
RMK NXT FCST BY 230600Z=
Your time UTC time
Weather data provided by Environment Canada and NAV CANADA